createdAt,value
2018-01-02T00:00:10.450Z,8.40
2018-01-02T00:02:39.115Z,8.40
2018-01-02T00:05:07.422Z,8.40
2018-01-02T00:07:35.642Z,8.20
2018-01-02T00:10:04.194Z,8.20
2018-01-02T00:12:33.203Z,8.20
2018-01-02T00:15:02.211Z,8.30
2018-01-02T00:17:30.485Z,8.20
2018-01-02T00:19:58.731Z,8.20
2018-01-02T00:22:26.977Z,8.30
2018-01-02T00:24:55.469Z,8.30
2018-01-02T00:27:23.702Z,8.30
2018-01-02T00:29:52.131Z,8.20
2018-01-02T00:32:20.388Z,8.20
2018-01-02T00:34:48.638Z,8.30
2018-01-02T00:37:16.875Z,8.40
2018-01-02T00:39:45.150Z,8.40
2018-01-02T00:42:13.391Z,8.40
2018-01-02T00:44:41.634Z,8.40
2018-01-02T00:47:09.954Z,8.50
2018-01-02T00:49:38.203Z,8.50
2018-01-02T00:52:06.443Z,8.50
2018-01-02T00:54:35.470Z,8.50
2018-01-02T00:57:03.710Z,8.50
2018-01-02T00:59:32.722Z,8.50
2018-01-02T01:02:01.070Z,8.50
2018-01-02T01:04:29.313Z,8.60
2018-01-02T01:06:57.541Z,8.50
2018-01-02T01:09:26.758Z,8.60
2018-01-02T01:11:55.219Z,8.50
2018-01-02T01:14:24.514Z,8.50
2018-01-02T01:16:53.550Z,8.60
2018-01-02T01:19:21.790Z,8.50
2018-01-02T01:21:50.031Z,8.60
2018-01-02T01:24:18.296Z,8.60
2018-01-02T01:26:46.542Z,8.50
2018-01-02T01:29:14.776Z,8.50
2018-01-02T01:31:43.100Z,8.50
2018-01-02T01:34:11.346Z,8.50
2018-01-02T01:36:39.585Z,8.40
2018-01-02T01:39:08.367Z,8.40
2018-01-02T01:41:36.610Z,8.40
2018-01-02T01:44:04.854Z,8.40
2018-01-02T01:46:34.050Z,8.40
2018-01-02T01:49:02.292Z,8.30
2018-01-02T01:51:30.538Z,8.20
2018-01-02T01:53:59.253Z,8.20
2018-01-02T01:56:27.502Z,8.00
2018-01-02T01:58:55.743Z,8.00
2018-01-02T02:01:24.002Z,7.90
2018-01-02T02:03:52.246Z,7.70
2018-01-02T02:06:20.490Z,7.60
2018-01-02T02:08:49.523Z,7.40
2018-01-02T02:11:18.614Z,7.40
2018-01-02T02:13:47.537Z,7.30
2018-01-02T02:16:16.118Z,7.20
2018-01-02T02:18:44.359Z,7.10
2018-01-02T02:21:12.726Z,7.10
2018-01-02T02:23:40.986Z,6.90
2018-01-02T02:26:10.003Z,6.90
2018-01-02T02:28:38.246Z,6.90
2018-01-02T02:31:06.513Z,6.80
2018-01-02T02:33:35.002Z,6.80
2018-01-02T02:36:03.242Z,6.80
2018-01-02T02:38:31.558Z,6.80
2018-01-02T02:41:07.414Z,6.80
2018-01-02T02:43:35.687Z,6.80
2018-01-02T02:46:04.693Z,6.80
2018-01-02T02:48:33.842Z,6.80
2018-01-02T02:51:02.106Z,6.80
2018-01-02T02:53:30.337Z,6.80
2018-01-02T02:55:58.586Z,6.80
2018-01-02T02:58:27.253Z,6.80
2018-01-02T03:00:55.501Z,6.70
2018-01-02T03:03:23.747Z,6.70
2018-01-02T03:05:52.772Z,6.80
2018-01-02T03:08:21.014Z,6.80
2018-01-02T03:10:50.019Z,6.70
2018-01-02T03:13:19.060Z,6.80
2018-01-02T03:15:47.662Z,6.80
2018-01-02T03:18:15.897Z,6.80
2018-01-02T03:20:44.246Z,6.70
2018-01-02T03:23:17.406Z,6.70
2018-01-02T03:25:45.667Z,6.80
2018-01-02T03:28:13.922Z,6.80
2018-01-02T03:30:42.163Z,6.70
2018-01-02T03:33:10.430Z,6.70
2018-01-02T03:35:38.670Z,6.70
2018-01-02T03:38:06.918Z,6.70
2018-01-02T03:40:35.332Z,6.60
2018-01-02T03:43:03.566Z,6.60
2018-01-02T03:45:31.801Z,6.60
2018-01-02T03:48:00.066Z,6.70
2018-01-02T03:50:28.307Z,6.70
2018-01-02T03:52:56.549Z,6.70
2018-01-02T03:55:25.586Z,6.70
2018-01-02T03:57:53.919Z,6.70
2018-01-02T04:00:22.155Z,6.80
2018-01-02T04:02:50.506Z,6.80
2018-01-02T04:05:19.033Z,6.70
2018-01-02T04:07:47.262Z,6.80
2018-01-02T04:10:15.714Z,6.80
2018-01-02T04:12:44.722Z,6.90
2018-01-02T04:15:15.826Z,6.90
2018-01-02T04:17:44.254Z,6.90
2018-01-02T04:20:12.494Z,7.00
2018-01-02T04:22:40.745Z,7.00
2018-01-02T04:25:09.321Z,7.00
2018-01-02T04:27:37.559Z,7.10
2018-01-02T04:30:06.562Z,7.20
2018-01-02T04:32:34.838Z,7.10
2018-01-02T04:35:03.842Z,7.20
2018-01-02T04:37:32.088Z,7.20
2018-01-02T04:40:00.350Z,7.20
2018-01-02T04:42:28.590Z,7.30
2018-01-02T04:44:56.838Z,7.30
2018-01-02T04:47:25.152Z,7.30
2018-01-02T04:49:53.390Z,7.30
2018-01-02T04:52:21.622Z,7.30
2018-01-02T04:54:49.886Z,7.30
2018-01-02T04:57:18.130Z,7.30
2018-01-02T04:59:46.375Z,7.40
2018-01-02T05:02:15.401Z,7.40
2018-01-02T05:04:43.728Z,7.40
2018-01-02T05:07:11.962Z,7.40
2018-01-02T05:09:40.564Z,7.30
2018-01-02T05:12:08.807Z,7.30
2018-01-02T05:14:37.045Z,7.30
2018-01-02T05:17:05.318Z,7.20
2018-01-02T05:19:33.998Z,7.20
2018-01-02T05:22:02.234Z,7.10
2018-01-02T05:24:30.494Z,7.20
2018-01-02T05:26:58.736Z,7.20
2018-01-02T05:29:26.970Z,7.30
2018-01-02T05:31:55.471Z,7.30
2018-01-02T05:34:23.714Z,7.30
2018-01-02T05:36:51.958Z,7.30
2018-01-02T05:39:20.223Z,7.40
2018-01-02T05:41:48.487Z,7.50
2018-01-02T05:44:16.735Z,7.50
2018-01-02T05:46:44.998Z,7.50
2018-01-02T05:49:13.238Z,7.50
2018-01-02T05:51:41.475Z,7.50
2018-01-02T05:54:09.782Z,7.50
2018-01-02T05:56:38.029Z,7.50
2018-01-02T05:59:06.278Z,7.50
2018-01-02T06:01:34.554Z,7.50
2018-01-02T06:04:02.808Z,7.40
2018-01-02T06:06:34.122Z,7.50
2018-01-02T06:09:02.472Z,7.50
2018-01-02T06:11:30.714Z,7.50
2018-01-02T06:13:58.953Z,7.40
2018-01-02T06:16:27.715Z,7.30
2018-01-02T06:18:56.015Z,7.30
2018-01-02T06:21:24.522Z,7.30
2018-01-02T06:23:52.806Z,7.30
2018-01-02T06:26:22.999Z,7.20
2018-01-02T06:28:51.238Z,7.20
2018-01-02T06:31:19.500Z,7.30
2018-01-02T06:33:47.747Z,7.30
2018-01-02T06:36:15.987Z,7.30
2018-01-02T06:38:44.669Z,7.30
2018-01-02T06:41:12.911Z,7.30
2018-01-02T06:43:41.146Z,7.40
2018-01-02T06:46:09.408Z,7.40
2018-01-02T06:48:37.656Z,7.30
2018-01-02T06:51:05.894Z,7.30
2018-01-02T06:53:34.926Z,7.20
2018-01-02T06:56:03.246Z,7.20
2018-01-02T06:58:31.486Z,7.10
2018-01-02T07:00:59.979Z,7.00
2018-01-02T07:03:28.227Z,6.90
2018-01-02T07:05:56.468Z,7.00
2018-01-02T07:08:24.726Z,7.00
2018-01-02T07:10:52.994Z,7.00
2018-01-02T07:13:21.230Z,7.00
2018-01-02T07:15:49.498Z,7.10
2018-01-02T07:18:18.502Z,7.30
2018-01-02T07:20:46.772Z,7.30
2018-01-02T07:23:16.145Z,7.50
2018-01-02T07:25:44.382Z,7.40
2018-01-02T07:28:12.622Z,7.30
2018-01-02T07:30:41.033Z,7.40
2018-01-02T07:33:09.440Z,7.40
2018-01-02T07:35:37.663Z,7.40
2018-01-02T07:38:06.697Z,7.50
2018-01-02T07:40:34.979Z,7.40
2018-01-02T07:43:03.202Z,7.40
2018-01-02T07:45:31.638Z,7.40
2018-01-02T07:47:59.882Z,7.40
2018-01-02T07:50:28.126Z,7.30
2018-01-02T07:52:56.399Z,7.20
2018-01-02T07:55:24.639Z,7.30
2018-01-02T07:57:52.927Z,7.40
2018-01-02T08:00:21.183Z,7.50
2018-01-02T08:02:49.418Z,7.40
2018-01-02T08:05:17.658Z,7.40
2018-01-02T08:07:46.023Z,7.50
2018-01-02T08:10:14.315Z,7.50
2018-01-02T08:12:42.595Z,7.50
2018-01-02T08:15:11.880Z,7.60
2018-01-02T08:17:40.107Z,7.60
2018-01-02T08:20:09.110Z,7.60
2018-01-02T08:22:37.868Z,7.60
2018-01-02T08:25:07.382Z,7.60
2018-01-02T08:27:36.110Z,7.60
2018-01-02T08:30:04.658Z,7.60
2018-01-02T08:32:32.890Z,7.60
2018-01-02T08:35:01.165Z,7.60
2018-01-02T08:37:29.437Z,7.60
2018-01-02T08:39:57.670Z,7.60
2018-01-02T08:42:26.680Z,7.60
2018-01-02T08:44:54.949Z,7.60
2018-01-02T08:47:23.192Z,7.70
2018-01-02T08:49:51.432Z,7.70
2018-01-02T08:52:19.762Z,7.70
2018-01-02T08:54:48.007Z,7.70
2018-01-02T08:57:16.247Z,7.80
2018-01-02T08:59:44.514Z,7.90
2018-01-02T09:02:12.755Z,7.90
2018-01-02T09:04:41.101Z,7.90
2018-01-02T09:07:09.384Z,7.80
2018-01-02T09:09:38.488Z,7.60
2018-01-02T09:12:06.730Z,7.60
2018-01-02T09:14:55.838Z,7.70
2018-01-02T09:17:24.205Z,7.70
2018-01-02T09:19:52.455Z,7.60
2018-01-02T09:22:20.718Z,7.50
2018-01-02T09:24:48.962Z,7.60
2018-01-02T09:27:17.451Z,7.50
2018-01-02T09:29:46.496Z,7.70
2018-01-02T09:32:14.731Z,7.60
2018-01-02T09:34:42.969Z,7.70
2018-01-02T09:37:11.374Z,7.70
2018-01-02T09:39:39.612Z,7.70
2018-01-02T09:42:07.850Z,7.80
2018-01-02T09:44:36.122Z,7.80
2018-01-02T09:47:04.358Z,7.80
2018-01-02T09:49:32.622Z,8.00
2018-01-02T09:52:00.890Z,8.10
2018-01-02T09:54:29.134Z,8.30
2018-01-02T09:56:57.378Z,8.40
2018-01-02T09:59:25.706Z,8.40
2018-01-02T10:01:53.951Z,8.70
2018-01-02T10:04:22.955Z,8.80
2018-01-02T10:06:51.219Z,8.80
2018-01-02T10:09:20.231Z,9.10
2018-01-02T10:11:48.542Z,9.10
2018-01-02T10:14:16.806Z,9.10
2018-01-02T10:16:45.058Z,8.90
2018-01-02T10:19:13.302Z,8.70
2018-01-02T10:21:41.835Z,8.50
2018-01-02T10:24:11.058Z,8.50
2018-01-02T10:26:39.298Z,8.40
2018-01-02T10:29:07.874Z,8.40
2018-01-02T10:31:36.109Z,8.40
2018-01-02T10:34:04.361Z,8.40
2018-01-02T10:36:32.631Z,8.40
2018-01-02T10:39:00.874Z,8.40
2018-01-02T10:41:29.122Z,8.40
2018-01-02T10:43:58.041Z,8.40
2018-01-02T10:46:26.246Z,8.40
2018-01-02T10:48:54.490Z,8.50
2018-01-02T10:51:22.750Z,8.60
2018-01-02T10:53:51.754Z,8.60
2018-01-02T10:56:20.008Z,8.60
2018-01-02T10:58:48.266Z,8.60
2018-01-02T11:01:22.209Z,8.60
2018-01-02T11:03:50.748Z,8.70
2018-01-02T11:06:18.986Z,8.70
2018-01-02T11:08:47.238Z,8.70
2018-01-02T11:11:20.290Z,8.80
2018-01-02T11:13:48.536Z,8.80
2018-01-02T11:16:16.846Z,8.70
2018-01-02T11:18:45.116Z,8.60
2018-01-02T11:21:13.363Z,8.60
2018-01-02T11:23:42.390Z,8.70
2018-01-02T11:26:10.874Z,8.70
2018-01-02T11:28:39.145Z,8.80
2018-01-02T11:31:07.568Z,8.80
2018-01-02T11:33:35.958Z,8.70
2018-01-02T11:36:04.191Z,8.70
2018-01-02T11:38:32.430Z,8.70
2018-01-02T11:41:00.706Z,8.70
2018-01-02T11:43:28.950Z,8.80
2018-01-02T11:45:57.202Z,8.70
2018-01-02T11:48:25.578Z,8.70
2018-01-02T11:50:53.878Z,8.60
2018-01-02T11:53:22.122Z,8.70
2018-01-02T11:55:50.379Z,8.70
2018-01-02T11:58:18.622Z,8.80
2018-01-02T12:00:46.867Z,8.90
2018-01-02T12:03:15.130Z,8.80
2018-01-02T12:05:43.518Z,8.90
2018-01-02T12:08:11.758Z,8.90
2018-01-02T12:10:40.118Z,8.90
2018-01-02T12:13:08.368Z,8.90
2018-01-02T12:15:36.615Z,8.90
2018-01-02T12:18:05.182Z,9.10
2018-01-02T12:20:33.483Z,9.20
2018-01-02T12:23:01.863Z,9.20
2018-01-02T12:25:30.271Z,9.40
2018-01-02T12:27:58.515Z,10.00
2018-01-02T12:30:26.771Z,10.70
2018-01-02T12:32:55.855Z,11.50
2018-01-02T12:35:24.107Z,12.20
2018-01-02T12:37:53.145Z,13.00
2018-01-02T12:40:21.467Z,13.00
2018-01-02T12:42:50.478Z,13.30
2018-01-02T12:45:19.499Z,13.20
2018-01-02T12:47:47.782Z,13.20
2018-01-02T12:50:16.198Z,13.00
2018-01-02T12:52:44.453Z,12.50
2018-01-02T12:55:12.754Z,11.90
2018-01-02T12:57:41.018Z,11.50
2018-01-02T13:00:09.266Z,11.00
2018-01-02T13:02:37.537Z,10.70
2018-01-02T13:05:05.850Z,10.40
2018-01-02T13:07:34.227Z,10.30
2018-01-02T13:10:02.635Z,10.20
2018-01-02T13:12:32.045Z,10.20
2018-01-02T13:15:00.595Z,10.20
2018-01-02T13:17:29.052Z,10.10
2018-01-02T13:19:57.549Z,10.00
2018-01-02T13:22:25.775Z,10.00
2018-01-02T13:24:54.806Z,9.60
2018-01-02T13:27:23.109Z,9.60
2018-01-02T13:29:51.346Z,9.60
2018-01-02T13:32:19.610Z,9.60
2018-01-02T13:34:48.147Z,9.60
2018-01-02T13:37:16.627Z,9.60
2018-01-02T13:39:45.066Z,9.60
2018-01-02T13:42:13.393Z,10.30
2018-01-02T13:44:41.622Z,11.00
2018-01-02T13:47:09.902Z,11.20
2018-01-02T13:49:38.206Z,11.70
2018-01-02T13:52:06.616Z,11.50
2018-01-02T13:54:35.650Z,11.40
2018-01-02T13:57:03.963Z,11.40
2018-01-02T13:59:32.202Z,11.50
2018-01-02T14:02:00.552Z,11.30
2018-01-02T14:04:28.798Z,10.80
2018-01-02T14:06:58.094Z,10.30
2018-01-02T14:09:26.570Z,10.40
2018-01-02T14:11:57.002Z,10.60
2018-01-02T14:14:25.412Z,10.50
2018-01-02T14:16:54.711Z,10.10
2018-01-02T14:19:23.722Z,9.90
2018-01-02T14:21:52.728Z,9.60
2018-01-02T14:24:21.150Z,9.60
2018-01-02T14:26:49.390Z,9.50
2018-01-02T14:29:17.634Z,9.30
2018-01-02T14:31:45.914Z,9.30
2018-01-02T14:34:14.923Z,9.20
2018-01-02T14:36:43.447Z,9.20
2018-01-02T14:39:11.698Z,9.20
2018-01-02T14:41:39.941Z,9.20
2018-01-02T14:44:08.184Z,9.20
2018-01-02T14:46:37.490Z,9.20
2018-01-02T14:49:05.738Z,9.10
2018-01-02T14:51:34.150Z,9.10
2018-01-02T14:54:02.542Z,9.10
2018-01-02T14:56:30.902Z,9.00
2018-01-02T14:58:59.278Z,9.10
2018-01-02T15:01:27.681Z,9.00
2018-01-02T15:03:56.034Z,9.00
2018-01-02T15:06:24.414Z,8.90
2018-01-02T15:08:52.906Z,8.90
2018-01-02T15:11:21.178Z,8.80
2018-01-02T15:13:49.551Z,8.70
2018-01-02T15:16:17.959Z,8.80
2018-01-02T15:18:46.509Z,8.90
2018-01-02T15:21:14.746Z,8.90
2018-01-02T15:23:43.102Z,9.00
2018-01-02T15:26:13.294Z,9.00
2018-01-02T15:28:41.698Z,8.90
2018-01-02T15:31:11.368Z,9.00
2018-01-02T15:33:39.624Z,8.90
2018-01-02T15:36:10.554Z,9.00
2018-01-02T15:38:39.821Z,9.00
2018-01-02T15:41:08.894Z,9.10
2018-01-02T15:43:37.173Z,9.10
2018-01-02T15:46:05.606Z,9.10
2018-01-02T15:48:33.934Z,9.00
2018-01-02T15:51:02.182Z,9.00
2018-01-02T15:53:30.778Z,9.00
2018-01-02T15:55:59.073Z,8.90
2018-01-02T15:58:27.402Z,8.70
2018-01-02T16:00:55.678Z,8.60
2018-01-02T16:03:25.274Z,8.50
2018-01-02T16:05:55.662Z,8.60
2018-01-02T16:08:23.942Z,8.60
2018-01-02T16:10:52.418Z,8.60
2018-01-02T16:13:20.794Z,8.60
2018-01-02T16:15:49.279Z,8.60
2018-01-02T16:18:17.558Z,8.50
2018-01-02T16:20:49.962Z,8.60
2018-01-02T16:23:18.990Z,8.40
2018-01-02T16:25:47.294Z,8.40
2018-01-02T16:28:15.713Z,8.30
2018-01-02T16:30:46.830Z,8.10
2018-01-02T16:33:15.198Z,8.00
2018-01-02T16:35:45.004Z,8.10
2018-01-02T16:38:13.375Z,8.10
2018-01-02T16:40:42.885Z,8.00
2018-01-02T16:43:11.203Z,8.10
2018-01-02T16:45:40.482Z,8.40
2018-01-02T16:48:08.854Z,8.40
2018-01-02T16:50:37.267Z,8.60
2018-01-02T16:53:06.265Z,8.50
2018-01-02T16:55:37.394Z,8.50
2018-01-02T16:58:05.834Z,8.40
2018-01-02T17:00:34.129Z,8.50
2018-01-02T17:03:03.338Z,8.50
2018-01-02T17:05:31.850Z,8.50
2018-01-02T17:08:01.151Z,8.50
2018-01-02T17:10:29.495Z,8.50
2018-01-02T17:12:57.904Z,8.50
2018-01-02T17:15:27.182Z,8.60
2018-01-02T17:17:55.551Z,8.50
2018-01-02T17:20:24.078Z,8.50
2018-01-02T17:22:53.235Z,8.50
2018-01-02T17:25:21.626Z,8.50
2018-01-02T17:27:50.023Z,8.40
2018-01-02T17:30:20.255Z,8.20
2018-01-02T17:32:48.906Z,8.20
2018-01-02T17:35:21.305Z,8.20
2018-01-02T17:37:50.318Z,8.30
2018-01-02T17:40:18.646Z,8.30
2018-01-02T17:42:48.054Z,8.10
2018-01-02T17:45:16.326Z,7.90
2018-01-02T17:47:44.897Z,7.80
2018-01-02T17:50:13.203Z,7.90
2018-01-02T17:52:42.414Z,7.90
2018-01-02T17:55:10.771Z,7.80
2018-01-02T17:57:41.014Z,7.80
2018-01-02T18:00:10.038Z,7.80
2018-01-02T18:02:39.182Z,7.80
2018-01-02T18:05:08.066Z,7.80
2018-01-02T18:07:37.270Z,7.70
2018-01-02T18:10:05.533Z,7.70
2018-01-02T18:12:33.823Z,7.80
2018-01-02T18:15:02.188Z,7.70
2018-01-02T18:17:30.483Z,7.80
2018-01-02T18:19:58.878Z,7.90
2018-01-02T18:22:28.145Z,7.80
2018-01-02T18:24:57.458Z,7.90
2018-01-02T18:27:25.910Z,8.00
2018-01-02T18:29:54.204Z,8.00
2018-01-02T18:32:22.639Z,7.90
2018-01-02T18:34:50.913Z,7.80
2018-01-02T18:37:19.354Z,7.70
2018-01-02T18:39:51.726Z,7.80
2018-01-02T18:42:20.448Z,7.80
2018-01-02T18:44:49.462Z,7.80
2018-01-02T18:47:17.790Z,7.80
2018-01-02T18:49:46.246Z,7.80
2018-01-02T18:52:15.470Z,7.90
2018-01-02T18:54:43.848Z,8.00
2018-01-02T18:57:12.124Z,7.90
2018-01-02T18:59:40.373Z,7.90
2018-01-02T19:02:09.298Z,7.80
2018-01-02T19:04:37.570Z,7.80
2018-01-02T19:07:06.358Z,7.80
2018-01-02T19:09:34.742Z,7.80
2018-01-02T19:12:03.302Z,7.70
2018-01-02T19:14:31.550Z,7.60
2018-01-02T19:16:59.790Z,7.60
2018-01-02T19:19:28.066Z,7.70
2018-01-02T19:21:57.235Z,7.60
2018-01-02T19:24:25.488Z,7.60
2018-01-02T19:26:53.785Z,7.70
2018-01-02T19:29:24.222Z,7.60
2018-01-02T19:31:52.469Z,7.70
2018-01-02T19:34:21.415Z,7.70
2018-01-02T19:36:50.596Z,7.70
2018-01-02T19:39:18.853Z,7.70
2018-01-02T19:41:47.122Z,7.70
2018-01-02T19:44:15.374Z,7.70
2018-01-02T19:46:43.997Z,7.80
2018-01-02T19:49:13.433Z,7.80
2018-01-02T19:51:41.810Z,7.80
2018-01-02T19:54:10.821Z,7.80
2018-01-02T19:56:40.019Z,7.90
2018-01-02T19:59:08.277Z,7.80
2018-01-02T20:01:36.526Z,7.80
2018-01-02T20:04:04.801Z,7.80
2018-01-02T20:06:33.041Z,7.80
2018-01-02T20:09:01.314Z,7.80
2018-01-02T20:11:29.771Z,7.80
2018-01-02T20:13:58.787Z,7.80
2018-01-02T20:16:27.785Z,7.80
2018-01-02T20:18:56.146Z,7.80
2018-01-02T20:21:25.158Z,7.70
2018-01-02T20:23:53.484Z,7.70
2018-01-02T20:26:21.895Z,7.60
2018-01-02T20:28:50.914Z,7.70
2018-01-02T20:31:20.353Z,7.70
2018-01-02T20:33:49.066Z,7.80
2018-01-02T20:36:17.334Z,8.00
2018-01-02T20:38:45.570Z,7.80
2018-01-02T20:41:14.063Z,7.80
2018-01-02T20:43:42.346Z,7.80
2018-01-02T20:46:10.743Z,7.80
2018-01-02T20:48:39.315Z,7.80
2018-01-02T20:51:07.598Z,7.80
2018-01-02T20:53:35.832Z,7.70
2018-01-02T20:56:04.114Z,7.80
2018-01-02T20:58:32.369Z,7.90
2018-01-02T21:01:01.470Z,7.60
2018-01-02T21:03:30.543Z,7.60
2018-01-02T21:05:59.017Z,7.60
2018-01-02T21:08:27.253Z,7.60
2018-01-02T21:10:56.709Z,7.60
2018-01-02T21:13:25.732Z,7.80
2018-01-02T21:15:54.079Z,7.70
2018-01-02T21:18:22.462Z,7.80
2018-01-02T21:20:53.574Z,7.90
2018-01-02T21:23:21.818Z,7.90
2018-01-02T21:25:50.162Z,8.00
2018-01-02T21:28:19.174Z,7.90
2018-01-02T21:30:47.438Z,7.90
2018-01-02T21:33:18.662Z,7.90
2018-01-02T21:35:46.893Z,7.90
2018-01-02T21:38:16.078Z,7.90
2018-01-02T21:40:44.354Z,7.90
2018-01-02T21:43:12.609Z,7.90
2018-01-02T21:45:41.046Z,8.00
2018-01-02T21:48:09.394Z,8.20
2018-01-02T21:50:40.886Z,8.00
2018-01-02T21:53:09.439Z,8.10
2018-01-02T21:55:37.836Z,8.10
2018-01-02T21:58:06.054Z,8.00
2018-01-02T22:00:35.396Z,8.00
2018-01-02T22:03:04.650Z,8.10
2018-01-02T22:05:34.841Z,8.00
2018-01-02T22:08:03.409Z,8.00
2018-01-02T22:10:31.998Z,7.80
2018-01-02T22:13:00.253Z,7.70
2018-01-02T22:15:28.661Z,7.70
2018-01-02T22:17:57.246Z,7.70
2018-01-02T22:20:25.482Z,7.70
2018-01-02T22:22:54.923Z,7.60
2018-01-02T22:25:25.295Z,7.60
2018-01-02T22:27:54.319Z,7.90
2018-01-02T22:30:22.638Z,7.90
2018-01-02T22:32:51.133Z,7.80
2018-01-02T22:35:19.382Z,7.70
2018-01-02T22:37:47.766Z,7.70
2018-01-02T22:40:16.184Z,7.70
2018-01-02T22:42:44.443Z,7.80
2018-01-02T22:45:12.846Z,7.90
2018-01-02T22:47:41.310Z,7.90
2018-01-02T22:50:09.666Z,8.00
2018-01-02T22:52:37.931Z,7.90
2018-01-02T22:55:06.312Z,7.90
2018-01-02T22:57:34.550Z,7.80
2018-01-02T23:00:02.795Z,7.80
2018-01-02T23:02:31.070Z,7.90
2018-01-02T23:04:59.326Z,7.90
2018-01-02T23:07:27.703Z,7.90
2018-01-02T23:09:57.954Z,7.90
2018-01-02T23:12:26.973Z,7.90
2018-01-02T23:14:56.012Z,7.90
2018-01-02T23:17:24.448Z,7.90
2018-01-02T23:19:52.697Z,7.90
2018-01-02T23:22:23.157Z,7.80
2018-01-02T23:24:51.430Z,7.80
2018-01-02T23:27:19.670Z,7.80
2018-01-02T23:29:48.954Z,7.90
2018-01-02T23:32:17.222Z,7.80
2018-01-02T23:34:45.470Z,7.90
2018-01-02T23:37:13.790Z,7.90
2018-01-02T23:39:42.106Z,8.00
2018-01-02T23:42:10.350Z,8.00
2018-01-02T23:44:40.766Z,8.00
2018-01-02T23:47:09.042Z,8.00
2018-01-02T23:49:37.291Z,8.10
2018-01-02T23:52:05.598Z,8.10
2018-01-02T23:54:34.038Z,8.20
2018-01-02T23:57:02.359Z,8.10
2018-01-02T23:59:30.594Z,8.10
